Time;durP1;ratioP1;P1;durP2;ratioP2;P2;SDS_P1;SDS_P2;PMS_P1;PMS_P2;Temp;Humidity;BMP_temperature;BMP_pressure;BME280_temperature;BME280_humidity;BME280_pressure;Samples;Min_cycle;Max_cycle;Signal;HPM_P1;HPM_P2
2021/01/04 00:01:58;;;;;;;0.83;0.30;;;2.20;99.90;;;;;;5000300;28;20203;-84
2021/01/04 00:04:58;;;;;;;0.30;0.30;;;2.30;99.90;;;;;;5012838;28;20210;-83
2021/01/04 00:07:45;;;;;;;0.10;0.10;;;2.20;99.90;;;;;;5011520;28;20179;-83
2021/01/04 00:10:48;;;;;;;0.10;0.10;;;2.20;99.90;;;;;;5001691;28;20226;-84
2021/01/04 00:13:23;;;;;;;0.60;0.60;;;2.10;99.90;;;;;;5020999;28;20238;-84
2021/01/04 00:15:53;;;;;;;0.73;0.67;;;2.20;99.90;;;;;;5014068;28;20182;-84
2021/01/04 00:18:37;;;;;;;0.10;0.10;;;2.20;99.90;;;;;;5013466;28;20218;-84
2021/01/04 00:21:30;;;;;;;0.30;0.30;;;2.20;99.90;;;;;;5003400;28;20187;-84
2021/01/04 00:24:05;;;;;;;0.87;0.30;;;2.10;99.90;;;;;;5028766;28;20194;-84
2021/01/04 00:27:08;;;;;;;0.23;0.10;;;2.10;99.90;;;;;;5012610;28;20187;-84
2021/01/04 00:29:34;;;;;;;0.27;0.27;;;2.10;99.90;;;;;;5013997;28;20190;-83
2021/01/04 00:32:05;;;;;;;0.20;0.20;;;2.30;99.90;;;;;;5011877;28;20210;-84
2021/01/04 00:34:42;;;;;;;1.00;0.30;;;2.20;99.90;;;;;;5012740;28;20207;-84
2021/01/04 00:37:39;;;;;;;0.10;0.10;;;2.20;99.90;;;;;;5005798;28;20193;-84
2021/01/04 00:40:32;;;;;;;1.70;0.90;;;2.20;99.90;;;;;;5011111;28;20195;-83
2021/01/04 00:42:57;;;;;;;0.83;0.83;;;2.20;99.90;;;;;;5012120;28;20231;-84
2021/01/04 00:45:30;;;;;;;1.07;0.63;;;2.20;99.90;;;;;;5013618;28;20194;-83
2021/01/04 00:48:09;;;;;;;0.27;0.27;;;2.10;99.90;;;;;;5013935;28;20241;-84
2021/01/04 00:51:16;;;;;;;0.03;0.03;;;2.20;99.90;;;;;;5012375;28;20239;-84
2021/01/04 00:53:45;;;;;;;0.27;0.27;;;2.20;99.90;;;;;;5014653;28;20171;-84
2021/01/04 00:56:31;;;;;;;0.40;0.40;;;2.20;99.90;;;;;;5014476;28;20179;-84
2021/01/04 00:59:12;;;;;;;0.47;0.27;;;2.20;99.90;;;;;;5013047;28;20222;-83
2021/01/04 01:02:08;;;;;;;0.30;0.23;;;2.20;99.90;;;;;;5012447;28;20200;-84
2021/01/04 01:05:07;;;;;;;0.30;0.30;;;2.20;99.90;;;;;;5011931;28;20187;-84
2021/01/04 01:08:01;;;;;;;0.23;0.23;;;2.20;99.90;;;;;;5014095;28;20643;-84
2021/01/04 01:10:28;;;;;;;0.37;0.37;;;2.20;99.90;;;;;;5011762;28;20222;-84
2021/01/04 01:13:20;;;;;;;1.90;0.40;;;2.30;99.90;;;;;;5014910;28;20204;-84
2021/01/04 01:16:12;;;;;;;0.23;0.23;;;2.10;99.90;;;;;;5012682;28;20201;-84
2021/01/04 01:18:41;;;;;;;0.30;0.30;;;2.10;99.90;;;;;;5012061;28;20207;-84
2021/01/04 01:21:09;;;;;;;0.07;0.07;;;2.00;99.90;;;;;;5013584;28;20187;-84
2021/01/04 01:23:37;;;;;;;0.40;0.40;;;2.00;99.90;;;;;;5012797;28;20702;-83
2021/01/04 01:26:48;;;;;;;0.47;0.47;;;2.00;99.90;;;;;;5012460;28;20175;-83
2021/01/04 01:29:25;;;;;;;0.13;0.13;;;2.00;99.90;;;;;;5002140;28;20202;-84
2021/01/04 01:32:20;;;;;;;0.20;0.20;;;1.90;99.90;;;;;;5016635;28;20201;-84
2021/01/04 01:35:14;;;;;;;0.70;0.50;;;2.00;99.90;;;;;;5015332;28;20190;-85
2021/01/04 01:37:58;;;;;;;0.10;0.10;;;2.00;99.90;;;;;;5016258;28;20194;-84
2021/01/04 01:40:42;;;;;;;0.20;0.20;;;2.00;99.90;;;;;;5011942;28;20179;-84
2021/01/04 01:43:20;;;;;;;0.43;0.43;;;1.90;99.90;;;;;;5015884;28;20203;-83
2021/01/04 01:46:01;;;;;;;0.83;0.57;;;1.90;99.90;;;;;;5016654;28;20179;-83
2021/01/04 01:49:05;;;;;;;0.10;0.10;;;2.00;99.90;;;;;;5015359;28;20187;-83
2021/01/04 01:51:30;;;;;;;0.13;0.13;;;2.00;99.90;;;;;;5015570;28;20632;-84
2021/01/04 01:54:20;;;;;;;0.10;0.10;;;1.90;99.90;;;;;;5016011;28;20195;-83
2021/01/04 01:57:22;;;;;;;0.10;0.10;;;1.90;99.90;;;;;;5021709;28;20194;-84
2021/01/04 01:59:50;;;;;;;0.07;0.07;;;2.10;99.90;;;;;;5004560;28;20218;-83
2021/01/04 02:02:27;;;;;;;0.10;0.10;;;2.00;99.90;;;;;;5015134;28;20204;-84
2021/01/04 02:05:15;;;;;;;0.10;0.10;;;2.00;99.90;;;;;;5016342;28;20206;-84
2021/01/04 02:08:01;;;;;;;0.17;0.17;;;1.90;99.90;;;;;;5016273;28;20269;-83
2021/01/04 02:10:35;;;;;;;0.20;0.20;;;1.80;99.90;;;;;;5008806;28;20182;-84
2021/01/04 02:13:11;;;;;;;0.73;0.53;;;1.80;99.90;;;;;;5014803;28;20218;-84
2021/01/04 02:16:00;;;;;;;0.30;0.30;;;1.80;99.90;;;;;;5016398;28;20245;-83
2021/01/04 02:18:51;;;;;;;0.20;0.20;;;1.80;99.90;;;;;;5014115;28;20261;-84
2021/01/04 02:21:51;;;;;;;0.30;0.30;;;1.70;99.90;;;;;;5014767;28;20281;-83
2021/01/04 02:24:22;;;;;;;0.60;0.60;;;1.70;99.90;;;;;;5010893;28;20249;-84
2021/01/04 02:27:11;;;;;;;0.30;0.30;;;1.70;99.90;;;;;;5014663;28;20216;-84
2021/01/04 02:29:37;;;;;;;0.43;0.43;;;1.70;99.90;;;;;;5008155;28;20278;-84
2021/01/04 02:32:05;;;;;;;0.00;0.00;;;1.70;99.90;;;;;;5012636;28;20223;-84
2021/01/04 02:34:34;;;;;;;0.30;0.30;;;1.80;99.90;;;;;;5015613;28;20191;-84
2021/01/04 02:37:00;;;;;;;0.33;0.33;;;1.80;99.90;;;;;;5026206;28;20812;-84
2021/01/04 02:40:14;;;;;;;0.40;0.40;;;1.80;99.90;;;;;;5018802;28;20299;-85
2021/01/04 02:42:43;;;;;;;0.80;0.80;;;1.80;99.90;;;;;;5012120;28;20237;-84
2021/01/04 02:45:13;;;;;;;0.20;0.20;;;1.70;99.90;;;;;;5014823;28;20186;-85
2021/01/04 02:47:57;;;;;;;0.10;0.10;;;1.70;99.90;;;;;;5015299;28;20203;-84
2021/01/04 02:50:44;;;;;;;0.07;0.07;;;1.70;99.90;;;;;;5013701;28;20644;-84
2021/01/04 02:53:25;;;;;;;0.10;0.10;;;1.80;99.90;;;;;;5003069;28;20296;-85
2021/01/04 02:56:12;;;;;;;0.10;0.10;;;1.70;99.90;;;;;;5011988;28;20198;-84
2021/01/04 02:58:56;;;;;;;0.27;0.23;;;1.70;99.90;;;;;;5014880;28;20202;-84
2021/01/04 03:01:43;;;;;;;0.93;0.93;;;1.80;99.90;;;;;;5018014;28;20234;-84
2021/01/04 03:04:15;;;;;;;1.13;0.77;;;1.80;99.90;;;;;;5029767;28;20187;-84
2021/01/04 03:07:03;;;;;;;0.10;0.10;;;1.80;99.90;;;;;;5006095;28;20601;-84
2021/01/04 03:09:31;;;;;;;0.33;0.33;;;1.80;99.90;;;;;;5007625;28;20176;-84
2021/01/04 03:11:58;;;;;;;0.23;0.23;;;1.80;99.90;;;;;;5011350;28;20837;-83
2021/01/04 03:14:45;;;;;;;0.17;0.17;;;1.90;99.90;;;;;;5016264;28;20179;-84
2021/01/04 03:17:26;;;;;;;0.73;0.50;;;1.90;99.90;;;;;;4993615;28;20195;-84
2021/01/04 03:19:57;;;;;;;0.57;0.50;;;1.80;99.90;;;;;;5015480;28;20211;-84
2021/01/04 03:22:23;;;;;;;0.10;0.10;;;1.90;99.90;;;;;;5000984;28;20753;-84
2021/01/04 03:24:51;;;;;;;0.23;0.23;;;1.80;99.90;;;;;;5013722;28;20183;-84
2021/01/04 03:27:22;;;;;;;0.77;0.53;;;1.80;99.90;;;;;;5014563;28;20180;-84
2021/01/04 03:29:48;;;;;;;0.27;0.27;;;1.80;99.90;;;;;;5015761;28;20225;-85
2021/01/04 03:32:14;;;;;;;0.20;0.20;;;1.80;99.90;;;;;;5006364;28;20311;-85
2021/01/04 03:34:40;;;;;;;0.67;0.20;;;1.70;99.90;;;;;;5008580;28;20211;-85
2021/01/04 03:37:05;;;;;;;0.10;0.10;;;1.70;99.90;;;;;;5014615;28;20210;-84
2021/01/04 03:39:31;;;;;;;0.10;0.10;;;1.70;99.90;;;;;;5018952;28;20211;-84
2021/01/04 03:41:58;;;;;;;0.27;0.23;;;1.70;99.90;;;;;;5015814;28;20238;-84
2021/01/04 03:44:26;;;;;;;2.10;0.50;;;1.70;99.90;;;;;;5015636;28;20180;-85
2021/01/04 03:46:51;;;;;;;1.40;1.03;;;1.70;99.90;;;;;;5015044;28;20197;-84
2021/01/04 03:49:17;;;;;;;0.30;0.30;;;1.70;99.90;;;;;;5014875;28;20238;-84
2021/01/04 03:51:56;;;;;;;0.13;0.13;;;1.70;99.90;;;;;;5013669;28;20216;-84
2021/01/04 03:54:22;;;;;;;0.23;0.20;;;1.60;99.90;;;;;;5014624;28;20188;-85
2021/01/04 03:56:48;;;;;;;0.73;0.23;;;1.50;99.90;;;;;;5014393;28;20221;-84
2021/01/04 03:59:14;;;;;;;0.10;0.10;;;1.60;99.90;;;;;;5014829;28;20234;-84
2021/01/04 04:01:50;;;;;;;0.77;0.50;;;1.60;99.90;;;;;;5015291;28;20199;-84
2021/01/04 04:04:16;;;;;;;0.67;0.67;;;1.60;99.90;;;;;;5015304;28;20180;-84
2021/01/04 04:06:41;;;;;;;0.43;0.40;;;1.60;99.90;;;;;;5014098;28;20187;-84
2021/01/04 04:09:08;;;;;;;1.03;0.43;;;1.60;99.90;;;;;;5014468;28;20175;-84
2021/01/04 04:11:33;;;;;;;0.20;0.20;;;1.60;99.90;;;;;;5011396;28;20218;-85
2021/01/04 04:13:59;;;;;;;0.30;0.30;;;1.60;99.90;;;;;;5014648;28;20183;-84
2021/01/04 04:16:24;;;;;;;0.20;0.20;;;1.60;99.90;;;;;;5013839;28;20557;-84
2021/01/04 04:18:51;;;;;;;0.30;0.30;;;1.70;99.90;;;;;;5013785;28;20214;-84
2021/01/04 04:21:16;;;;;;;0.30;0.30;;;1.70;99.90;;;;;;5014320;28;20217;-83
2021/01/04 04:23:42;;;;;;;0.17;0.17;;;1.70;99.90;;;;;;5013880;28;20186;-84
2021/01/04 04:26:16;;;;;;;0.33;0.33;;;1.80;99.90;;;;;;5013859;28;20201;-84
2021/01/04 04:28:41;;;;;;;0.10;0.10;;;1.70;99.90;;;;;;5012581;28;20269;-84
2021/01/04 04:31:07;;;;;;;0.20;0.20;;;1.70;99.90;;;;;;5013614;28;20191;-85
2021/01/04 04:33:32;;;;;;;0.20;0.20;;;1.70;99.90;;;;;;5014136;28;20659;-84
2021/01/04 04:35:58;;;;;;;0.23;0.23;;;1.70;99.90;;;;;;5013883;28;20253;-85
2021/01/04 04:38:23;;;;;;;0.40;0.37;;;1.70;99.90;;;;;;5017706;28;20241;-84
2021/01/04 04:40:50;;;;;;;0.20;0.20;;;1.70;99.90;;;;;;5014655;28;20175;-85
2021/01/04 04:43:27;;;;;;;0.13;0.13;;;1.70;99.90;;;;;;5011316;28;20187;-84
2021/01/04 04:45:54;;;;;;;0.13;0.13;;;1.70;99.90;;;;;;5009286;28;20238;-84
2021/01/04 04:48:52;;;;;;;0.20;0.20;;;1.60;99.90;;;;;;5003311;28;20179;-84
2021/01/04 04:51:40;;;;;;;0.23;0.23;;;1.60;99.90;;;;;;5012006;28;20265;-84
2021/01/04 04:54:32;;;;;;;0.10;0.10;;;1.70;99.90;;;;;;5012772;28;20194;-84
2021/01/04 04:57:16;;;;;;;0.33;0.33;;;1.70;99.90;;;;;;5004436;28;20219;-84
2021/01/04 04:59:58;;;;;;;0.10;0.10;;;1.70;99.90;;;;;;4998994;28;20207;-84
2021/01/04 05:02:54;;;;;;;0.53;0.53;;;1.70;99.90;;;;;;5012879;28;20710;-84
2021/01/04 05:05:31;;;;;;;0.20;0.20;;;1.70;99.90;;;;;;5015861;28;20179;-84
2021/01/04 05:08:14;;;;;;;0.20;0.20;;;1.70;99.90;;;;;;5005733;28;20794;-84
2021/01/04 05:10:43;;;;;;;0.30;0.30;;;1.70;99.90;;;;;;5014787;28;20203;-83
2021/01/04 05:13:26;;;;;;;0.40;0.30;;;1.60;99.90;;;;;;5015645;28;20250;-84
2021/01/04 05:16:04;;;;;;;0.20;0.20;;;1.70;99.90;;;;;;5017041;28;20191;-83
2021/01/04 05:18:57;;;;;;;0.10;0.10;;;1.70;99.90;;;;;;5017592;28;20238;-84
2021/01/04 05:21:38;;;;;;;0.40;0.40;;;1.70;99.90;;;;;;5015036;28;20215;-84
2021/01/04 05:24:45;;;;;;;0.23;0.23;;;1.70;99.90;;;;;;5008386;28;20175;-84
2021/01/04 05:27:39;;;;;;;0.57;0.57;;;1.70;99.90;;;;;;5031045;28;20199;-84
2021/01/04 05:30:26;;;;;;;0.20;0.20;;;1.70;99.90;;;;;;5015069;28;20191;-85
2021/01/04 05:33:26;;;;;;;0.37;0.37;;;1.70;99.90;;;;;;5009529;28;20710;-84
2021/01/04 05:36:04;;;;;;;0.20;0.20;;;1.70;99.90;;;;;;5030612;28;20274;-84
2021/01/04 05:38:42;;;;;;;0.50;0.33;;;1.70;99.90;;;;;;5036528;28;20215;-84
2021/01/04 05:41:32;;;;;;;0.10;0.10;;;1.70;99.90;;;;;;5014533;28;20175;-85
2021/01/04 05:44:20;;;;;;;0.20;0.20;;;1.70;99.90;;;;;;5015419;28;20593;-84
2021/01/04 05:46:55;;;;;;;0.20;0.20;;;1.70;99.90;;;;;;5011659;28;20183;-84
2021/01/04 05:49:29;;;;;;;0.10;0.10;;;1.80;99.90;;;;;;5001485;28;20195;-84
2021/01/04 05:51:55;;;;;;;0.60;0.60;;;1.70;99.90;;;;;;5015562;28;20694;-84
2021/01/04 05:54:29;;;;;;;0.20;0.20;;;1.70;99.90;;;;;;5013249;28;20225;-83
2021/01/04 05:57:08;;;;;;;0.53;0.10;;;1.70;99.90;;;;;;5015851;28;20191;-83
2021/01/04 05:59:54;;;;;;;0.10;0.10;;;1.70;99.90;;;;;;5013956;28;20228;-84
2021/01/04 06:02:28;;;;;;;0.40;0.40;;;1.80;99.90;;;;;;5014987;28;20222;-85
2021/01/04 06:05:09;;;;;;;0.20;0.20;;;1.80;99.90;;;;;;5014412;28;20199;-83
2021/01/04 06:07:40;;;;;;;0.30;0.30;;;1.80;99.90;;;;;;5014017;28;20199;-84
2021/01/04 06:10:08;;;;;;;1.40;0.73;;;1.80;99.90;;;;;;5014094;28;20647;-84
2021/01/04 06:12:38;;;;;;;0.23;0.23;;;1.80;99.90;;;;;;5009101;28;20215;-86
2021/01/04 06:15:06;;;;;;;0.43;0.43;;;1.70;99.90;;;;;;5009114;28;20191;-87
2021/01/04 06:17:39;;;;;;;0.10;0.10;;;1.80;99.90;;;;;;5007746;28;20195;-86
2021/01/04 06:20:19;;;;;;;0.10;0.10;;;1.80;99.90;;;;;;5010616;28;20287;-82
2021/01/04 06:22:45;;;;;;;0.50;0.37;;;1.80;99.90;;;;;;5012084;28;20226;-83
2021/01/04 06:25:14;;;;;;;0.07;0.07;;;1.90;99.90;;;;;;5013634;28;20698;-84
2021/01/04 06:27:42;;;;;;;1.33;1.33;;;1.90;99.90;;;;;;5014238;28;21781;-84
2021/01/04 06:30:28;;;;;;;0.27;0.27;;;1.90;99.90;;;;;;5007479;28;20222;-83
2021/01/04 06:33:01;;;;;;;0.37;0.37;;;1.90;99.90;;;;;;4998617;28;20211;-84
2021/01/04 06:35:29;;;;;;;4.97;0.37;;;1.90;99.90;;;;;;5008361;28;20636;-83
2021/01/04 06:38:25;;;;;;;0.57;0.53;;;1.90;99.90;;;;;;5011894;28;20795;-83
2021/01/04 06:40:51;;;;;;;0.17;0.17;;;1.90;99.90;;;;;;5011426;28;20668;-83
2021/01/04 06:43:29;;;;;;;0.43;0.43;;;1.90;99.90;;;;;;5011405;28;20213;-83
2021/01/04 06:46:36;;;;;;;0.90;0.40;;;2.00;99.90;;;;;;5009282;28;20624;-81
2021/01/04 06:49:16;;;;;;;0.30;0.30;;;2.00;99.90;;;;;;5007221;28;20272;-84
2021/01/04 06:52:03;;;;;;;0.80;0.80;;;2.00;99.90;;;;;;5027122;28;20207;-83
2021/01/04 06:55:00;;;;;;;0.23;0.23;;;1.90;99.90;;;;;;5013012;28;20195;-83
2021/01/04 06:57:41;;;;;;;0.77;0.60;;;2.00;99.90;;;;;;5022994;28;20187;-84
2021/01/04 07:00:25;;;;;;;0.20;0.20;;;1.90;99.90;;;;;;5010989;28;20266;-84
2021/01/04 07:03:18;;;;;;;0.20;0.20;;;1.90;99.90;;;;;;5009166;28;20210;-84
2021/01/04 07:06:15;;;;;;;0.53;0.47;;;2.00;99.90;;;;;;5018837;28;20187;-84
2021/01/04 07:09:09;;;;;;;0.13;0.13;;;2.00;99.90;;;;;;5008772;28;22019;-84
2021/01/04 07:11:44;;;;;;;0.77;0.20;;;2.00;99.90;;;;;;5023907;28;20212;-84
2021/01/04 07:14:39;;;;;;;0.20;0.20;;;2.10;99.90;;;;;;5009746;28;20197;-84
2021/01/04 07:17:24;;;;;;;0.23;0.23;;;2.10;99.90;;;;;;5022491;28;20184;-84
2021/01/04 07:20:36;;;;;;;0.57;0.57;;;2.00;99.90;;;;;;5001050;28;20800;-83
2021/01/04 07:23:15;;;;;;;0.30;0.30;;;2.00;99.90;;;;;;4996400;28;20234;-83
2021/01/04 07:25:48;;;;;;;1.07;0.77;;;2.10;99.90;;;;;;5000360;28;20556;-83
2021/01/04 07:28:47;;;;;;;0.30;0.30;;;2.10;99.90;;;;;;5019481;28;20188;-82
2021/01/04 07:31:37;;;;;;;0.20;0.17;;;2.00;99.90;;;;;;5000679;28;20741;-83
2021/01/04 07:34:27;;;;;;;0.13;0.10;;;2.10;99.90;;;;;;5011333;28;20211;-83
2021/01/04 07:37:22;;;;;;;3.40;0.50;;;2.10;99.90;;;;;;5007827;28;20179;-82
2021/01/04 07:40:02;;;;;;;0.77;0.33;;;2.10;99.90;;;;;;4996209;28;20623;-83
2021/01/04 07:42:45;;;;;;;1.97;0.63;;;2.10;99.90;;;;;;4986394;28;20221;-84
2021/01/04 07:45:36;;;;;;;0.77;0.60;;;2.10;99.90;;;;;;4981723;28;20195;-84
2021/01/04 07:48:23;;;;;;;0.20;0.20;;;2.10;99.90;;;;;;4986764;28;20195;-84
2021/01/04 07:51:07;;;;;;;0.10;0.10;;;2.10;99.90;;;;;;5010771;28;20187;-83
2021/01/04 07:53:44;;;;;;;2.10;0.60;;;2.10;99.90;;;;;;5004039;28;20195;-83
2021/01/04 07:56:49;;;;;;;0.80;0.77;;;2.10;99.90;;;;;;5003784;28;20201;-82
2021/01/04 07:59:46;;;;;;;0.10;0.10;;;2.10;99.90;;;;;;5007125;28;20211;-83
2021/01/04 08:02:33;;;;;;;0.63;0.40;;;2.20;99.90;;;;;;5009154;28;20206;-83
2021/01/04 08:05:21;;;;;;;0.60;0.60;;;2.10;99.90;;;;;;5011536;28;20183;-82
2021/01/04 08:08:07;;;;;;;0.80;0.80;;;2.10;99.90;;;;;;5008121;28;20190;-82
2021/01/04 08:10:44;;;;;;;0.20;0.20;;;2.20;99.90;;;;;;5006373;28;20195;-83
2021/01/04 08:13:44;;;;;;;0.67;0.50;;;2.20;99.90;;;;;;5018986;28;20290;-83
2021/01/04 08:16:17;;;;;;;0.10;0.10;;;2.20;99.90;;;;;;5008150;28;20179;-85
2021/01/04 08:18:46;;;;;;;0.40;0.40;;;2.20;99.90;;;;;;5009329;28;20211;-84
2021/01/04 08:21:38;;;;;;;1.20;0.90;;;2.20;99.90;;;;;;5004106;28;20294;-81
2021/01/04 08:24:18;;;;;;;1.10;0.73;;;2.20;99.90;;;;;;5005264;28;20203;-81
2021/01/04 08:27:12;;;;;;;0.30;0.30;;;2.20;99.90;;;;;;5006002;28;20193;-81
2021/01/04 08:29:52;;;;;;;2.00;1.53;;;2.20;99.90;;;;;;5003603;28;20191;-81
2021/01/04 08:32:40;;;;;;;0.37;0.37;;;2.20;99.90;;;;;;5011494;28;20206;-80
2021/01/04 08:35:16;;;;;;;0.40;0.40;;;2.20;99.90;;;;;;5010733;28;20554;-81
2021/01/04 08:37:46;;;;;;;1.90;0.93;;;2.20;99.90;;;;;;5017022;28;20200;-81
2021/01/04 08:40:30;;;;;;;0.50;0.50;;;2.20;99.90;;;;;;5015242;28;20278;-81
2021/01/04 08:43:08;;;;;;;1.23;0.67;;;2.20;99.90;;;;;;5014910;28;20206;-81
2021/01/04 08:45:45;;;;;;;2.30;1.43;;;2.20;99.90;;;;;;5016252;28;20183;-81
2021/01/04 08:48:32;;;;;;;0.60;0.60;;;2.30;99.90;;;;;;5007407;28;20186;-81
2021/01/04 08:51:06;;;;;;;0.30;0.30;;;2.30;99.90;;;;;;5015318;28;20569;-81
2021/01/04 08:53:32;;;;;;;0.17;0.17;;;2.30;99.90;;;;;;5014474;28;20191;-81
2021/01/04 08:56:13;;;;;;;0.90;0.90;;;2.50;99.90;;;;;;5015157;28;20639;-81
2021/01/04 08:58:40;;;;;;;1.90;1.60;;;2.30;99.90;;;;;;5015670;28;20207;-81
2021/01/04 09:01:12;;;;;;;0.87;0.53;;;2.40;99.90;;;;;;5014083;28;20280;-81
2021/01/04 09:03:38;;;;;;;2.97;0.30;;;2.40;99.90;;;;;;5013765;28;20210;-81
2021/01/04 09:06:37;;;;;;;0.40;0.40;;;2.40;99.90;;;;;;5013443;28;20187;-81
2021/01/04 09:09:20;;;;;;;0.63;0.60;;;2.40;99.90;;;;;;5007232;28;20231;-81
2021/01/04 09:12:15;;;;;;;0.50;0.40;;;2.40;99.90;;;;;;5013281;28;20214;-81
2021/01/04 09:14:59;;;;;;;0.77;0.40;;;2.40;99.90;;;;;;5014443;28;20687;-81
2021/01/04 09:17:43;;;;;;;1.03;0.87;;;2.40;99.90;;;;;;5014840;28;20194;-81
2021/01/04 09:20:37;;;;;;;1.27;0.60;;;2.40;99.90;;;;;;5012523;28;20248;-81
2021/01/04 09:23:18;;;;;;;0.70;0.70;;;2.40;99.90;;;;;;5014362;28;20207;-82
2021/01/04 09:26:16;;;;;;;1.23;1.23;;;2.40;99.90;;;;;;5013158;28;20825;-81
2021/01/04 09:28:46;;;;;;;0.97;0.97;;;2.40;99.90;;;;;;5013515;28;20183;-81
2021/01/04 09:31:17;;;;;;;0.43;0.43;;;2.50;99.90;;;;;;5012485;28;20690;-81
2021/01/04 09:33:48;;;;;;;0.47;0.47;;;2.50;99.90;;;;;;5014794;28;20246;-81
2021/01/04 09:36:17;;;;;;;0.20;0.20;;;2.50;99.90;;;;;;5014601;28;20664;-81
2021/01/04 09:38:43;;;;;;;0.30;0.30;;;2.50;99.90;;;;;;5017393;28;20211;-81
2021/01/04 09:41:11;;;;;;;0.40;0.40;;;2.50;99.90;;;;;;5013086;28;20266;-81
2021/01/04 09:43:38;;;;;;;0.43;0.43;;;2.50;99.90;;;;;;5014504;28;20203;-81
2021/01/04 09:46:14;;;;;;;0.20;0.20;;;2.50;99.90;;;;;;5006600;28;20794;-81
2021/01/04 09:49:03;;;;;;;0.60;0.50;;;2.50;99.90;;;;;;5004994;28;20275;-81
2021/01/04 09:52:10;;;;;;;0.30;0.30;;;2.60;99.90;;;;;;5010082;28;20207;-82
2021/01/04 09:54:42;;;;;;;0.40;0.40;;;2.60;99.90;;;;;;4996323;28;20682;-81
2021/01/04 09:57:07;;;;;;;1.60;0.83;;;2.60;99.90;;;;;;5010971;28;20294;-78
2021/01/04 09:59:41;;;;;;;0.60;0.60;;;2.60;99.90;;;;;;5007982;28;20319;-79
2021/01/04 10:02:32;;;;;;;0.33;0.33;;;2.70;99.90;;;;;;5011539;28;20210;-80
2021/01/04 10:05:11;;;;;;;0.67;0.67;;;2.70;99.90;;;;;;5010284;28;20262;-80
2021/01/04 10:07:37;;;;;;;0.27;0.27;;;2.80;99.90;;;;;;5010763;28;20194;-80
2021/01/04 10:10:10;;;;;;;0.30;0.30;;;2.70;99.90;;;;;;5003731;28;20742;-80
2021/01/04 10:12:36;;;;;;;1.70;1.60;;;2.70;99.90;;;;;;5001135;28;20220;-80
2021/01/04 10:15:03;;;;;;;0.10;0.10;;;2.80;99.90;;;;;;5008240;28;20187;-81
2021/01/04 10:17:36;;;;;;;0.30;0.30;;;2.90;99.90;;;;;;5012299;28;20191;-80
2021/01/04 10:20:12;;;;;;;0.33;0.33;;;2.90;99.90;;;;;;4998150;28;20203;-81
2021/01/04 10:22:46;;;;;;;0.40;0.40;;;3.00;99.90;;;;;;5009060;28;20218;-80
2021/01/04 10:25:18;;;;;;;0.13;0.13;;;2.90;99.90;;;;;;5006904;28;20187;-80
2021/01/04 10:27:44;;;;;;;0.30;0.30;;;3.00;99.90;;;;;;5008397;28;20680;-80
2021/01/04 10:30:13;;;;;;;1.20;1.13;;;3.10;99.90;;;;;;5010816;28;20190;-80
2021/01/04 10:32:41;;;;;;;0.57;0.57;;;3.00;99.90;;;;;;5014272;28;20230;-80
2021/01/04 10:35:20;;;;;;;0.20;0.20;;;3.00;99.90;;;;;;5009903;28;20179;-80
2021/01/04 10:37:51;;;;;;;0.47;0.47;;;3.20;99.90;;;;;;5030465;28;20185;-80
2021/01/04 10:40:20;;;;;;;0.87;0.40;;;3.20;99.90;;;;;;5003220;28;20194;-80
2021/01/04 10:42:48;;;;;;;0.63;0.63;;;3.10;99.90;;;;;;5010536;28;20610;-80
2021/01/04 10:45:21;;;;;;;1.50;1.43;;;3.20;99.90;;;;;;5009944;28;20201;-80
2021/01/04 10:47:59;;;;;;;1.53;0.30;;;3.30;99.90;;;;;;5007678;28;20211;-80
2021/01/04 10:50:45;;;;;;;3.73;0.73;;;3.40;99.90;;;;;;5006993;28;20271;-80
2021/01/04 10:53:31;;;;;;;1.47;0.60;;;3.40;99.90;;;;;;5020824;28;20623;-79
2021/01/04 10:56:09;;;;;;;0.43;0.40;;;3.50;99.90;;;;;;5023738;28;20199;-80
2021/01/04 10:58:56;;;;;;;0.40;0.40;;;3.50;99.90;;;;;;5008955;28;20718;-81
2021/01/04 11:01:24;;;;;;;0.10;0.10;;;3.40;99.90;;;;;;5004387;28;20221;-80
2021/01/04 11:04:11;;;;;;;1.07;0.77;;;3.40;99.90;;;;;;5009088;28;20187;-80
2021/01/04 11:06:41;;;;;;;0.60;0.40;;;3.50;99.90;;;;;;5005992;28;20200;-80
2021/01/04 11:09:19;;;;;;;1.00;0.57;;;3.30;99.90;;;;;;5004754;28;20195;-80
2021/01/04 11:11:48;;;;;;;2.93;1.33;;;3.20;99.90;;;;;;5010660;28;20250;-80
2021/01/04 11:14:16;;;;;;;1.37;0.90;;;3.20;99.90;;;;;;5009872;28;20202;-81
2021/01/04 11:16:50;;;;;;;0.67;0.63;;;3.20;99.90;;;;;;5010511;28;20195;-80
2021/01/04 11:19:46;;;;;;;0.77;0.77;;;3.20;99.90;;;;;;5010800;28;20214;-81
2021/01/04 11:22:20;;;;;;;0.20;0.20;;;3.30;99.90;;;;;;5001000;28;20219;-81
2021/01/04 11:24:46;;;;;;;0.87;0.87;;;3.20;99.90;;;;;;5006203;28;20650;-80
2021/01/04 11:27:12;;;;;;;0.87;0.87;;;3.10;99.90;;;;;;5005658;28;20187;-79
2021/01/04 11:29:39;;;;;;;4.90;0.70;;;3.20;99.90;;;;;;5010038;28;20196;-81
2021/01/04 11:32:06;;;;;;;1.17;0.40;;;3.30;99.90;;;;;;5010078;28;20231;-81
2021/01/04 11:34:31;;;;;;;0.70;0.70;;;3.20;99.90;;;;;;5009063;28;20623;-81
2021/01/04 11:36:57;;;;;;;0.60;0.60;;;3.20;99.90;;;;;;5004796;28;20194;-80
2021/01/04 11:39:23;;;;;;;0.77;0.40;;;3.20;99.90;;;;;;5006376;28;20286;-80
2021/01/04 11:41:49;;;;;;;1.20;0.97;;;3.20;99.90;;;;;;5004502;28;20205;-80
2021/01/04 11:44:14;;;;;;;0.30;0.30;;;3.10;99.90;;;;;;5005433;28;20184;-80
2021/01/04 11:46:40;;;;;;;0.60;0.60;;;3.20;99.90;;;;;;5000838;28;20198;-80
2021/01/04 11:49:06;;;;;;;1.30;0.57;;;3.20;99.90;;;;;;5006102;28;20191;-80
2021/01/04 11:51:31;;;;;;;0.30;0.30;;;3.20;99.90;;;;;;5006340;28;20583;-81
2021/01/04 11:53:57;;;;;;;0.40;0.40;;;3.30;99.90;;;;;;5006772;28;20270;-81
2021/01/04 11:56:24;;;;;;;1.90;1.40;;;3.30;99.90;;;;;;5007880;28;20193;-81
2021/01/04 11:58:50;;;;;;;0.53;0.53;;;3.20;99.90;;;;;;5002740;28;20204;-81
2021/01/04 12:01:17;;;;;;;0.43;0.43;;;3.30;99.90;;;;;;5009083;28;20200;-80
2021/01/04 12:03:43;;;;;;;0.57;0.57;;;3.30;99.90;;;;;;5002945;28;20222;-80
2021/01/04 12:06:10;;;;;;;0.70;0.70;;;3.30;99.90;;;;;;5004384;28;20253;-81
2021/01/04 12:08:37;;;;;;;0.53;0.40;;;3.30;99.90;;;;;;5001931;28;20191;-79
2021/01/04 12:11:03;;;;;;;0.17;0.17;;;3.20;99.90;;;;;;5007156;28;20278;-79
2021/01/04 12:13:29;;;;;;;0.83;0.73;;;3.30;99.90;;;;;;5005223;28;20343;-81
2021/01/04 12:15:54;;;;;;;2.37;0.63;;;3.30;99.90;;;;;;5010169;28;20190;-81
2021/01/04 12:18:20;;;;;;;0.40;0.40;;;3.30;99.90;;;;;;5010236;28;20241;-80
2021/01/04 12:20:47;;;;;;;0.27;0.27;;;3.30;99.90;;;;;;5010494;28;20198;-81
2021/01/04 12:23:13;;;;;;;0.60;0.60;;;3.30;99.90;;;;;;5009968;28;20210;-81
2021/01/04 12:25:38;;;;;;;1.13;1.13;;;3.30;99.90;;;;;;5010237;28;20191;-81
2021/01/04 12:28:04;;;;;;;0.70;0.70;;;3.20;99.90;;;;;;5008857;28;20559;-81
2021/01/04 12:30:31;;;;;;;0.50;0.50;;;3.30;99.90;;;;;;5011573;28;20191;-82
2021/01/04 12:32:57;;;;;;;0.47;0.47;;;3.20;99.90;;;;;;5010637;28;20294;-80
2021/01/04 12:35:23;;;;;;;0.53;0.53;;;3.30;99.90;;;;;;5009109;28;20375;-81
2021/01/04 12:37:48;;;;;;;2.27;1.90;;;3.20;99.90;;;;;;5009212;28;20191;-83
2021/01/04 12:40:18;;;;;;;1.33;1.00;;;3.20;99.90;;;;;;5007536;28;20211;-83
2021/01/04 12:42:44;;;;;;;0.70;0.70;;;3.20;99.90;;;;;;5007254;28;20273;-82
2021/01/04 12:45:10;;;;;;;1.20;0.70;;;3.40;99.90;;;;;;5010252;28;20188;-81
2021/01/04 12:47:36;;;;;;;0.70;0.33;;;3.20;99.90;;;;;;5004963;28;20195;-81
2021/01/04 12:50:02;;;;;;;2.90;0.97;;;3.20;99.90;;;;;;5007799;28;20194;-81
2021/01/04 12:52:27;;;;;;;0.20;0.20;;;3.10;99.90;;;;;;5008129;28;20268;-82
2021/01/04 12:54:53;;;;;;;0.57;0.50;;;3.20;99.90;;;;;;5008553;28;20710;-82
2021/01/04 12:57:19;;;;;;;0.40;0.40;;;3.20;99.90;;;;;;5010250;28;20222;-82
2021/01/04 12:59:45;;;;;;;1.53;1.43;;;3.20;99.90;;;;;;5009446;28;20246;-80
2021/01/04 13:02:13;;;;;;;0.30;0.30;;;3.20;99.90;;;;;;5009122;28;20255;-82
2021/01/04 13:04:42;;;;;;;0.53;0.53;;;3.20;99.90;;;;;;5010960;28;20763;-81
2021/01/04 13:07:09;;;;;;;1.30;0.50;;;3.10;99.90;;;;;;5009946;28;20191;-82
2021/01/04 13:09:35;;;;;;;1.00;1.00;;;3.10;99.90;;;;;;5009428;28;20735;-82
2021/01/04 13:12:02;;;;;;;1.70;1.13;;;3.10;99.90;;;;;;5012596;28;20239;-82
2021/01/04 13:14:28;;;;;;;0.77;0.73;;;3.10;99.90;;;;;;5012197;28;20187;-82
2021/01/04 13:16:53;;;;;;;1.83;0.80;;;3.10;99.90;;;;;;5010863;28;20195;-82
2021/01/04 13:19:19;;;;;;;1.37;1.27;;;3.10;99.90;;;;;;5010222;28;20247;-82
2021/01/04 13:21:45;;;;;;;0.50;0.50;;;3.00;99.90;;;;;;5009438;28;20310;-82
2021/01/04 13:24:13;;;;;;;0.40;0.40;;;3.10;99.90;;;;;;5010579;28;20188;-81
2021/01/04 13:26:41;;;;;;;1.60;0.97;;;3.10;99.90;;;;;;5016229;28;20183;-82
2021/01/04 13:29:07;;;;;;;1.70;0.87;;;3.10;99.90;;;;;;5011755;28;20187;-81
2021/01/04 13:31:33;;;;;;;0.83;0.70;;;3.10;99.90;;;;;;5010917;28;20671;-82
2021/01/04 13:33:59;;;;;;;0.50;0.50;;;3.10;99.90;;;;;;5012616;28;20190;-82
2021/01/04 13:36:24;;;;;;;0.83;0.60;;;3.00;99.90;;;;;;5008716;28;20202;-82
2021/01/04 13:38:50;;;;;;;0.87;0.37;;;3.00;99.90;;;;;;5016452;28;20203;-82
2021/01/04 13:41:16;;;;;;;0.37;0.37;;;3.10;99.90;;;;;;5011871;28;20210;-82
2021/01/04 13:43:43;;;;;;;0.83;0.83;;;3.00;99.90;;;;;;5012943;28;20183;-82
2021/01/04 13:46:09;;;;;;;2.30;0.60;;;3.00;99.90;;;;;;5029651;28;20187;-82
2021/01/04 13:48:35;;;;;;;1.93;1.90;;;3.00;99.90;;;;;;5010909;28;20278;-82